createdAt,value
2023-02-13T00:00:29.763Z,102040.59
2023-02-13T00:02:56.335Z,102044.13
2023-02-13T00:05:22.870Z,102042.28
2023-02-13T00:07:49.497Z,102042.78
2023-02-13T00:10:16.531Z,102041.44
2023-02-13T00:12:45.730Z,102039.94
2023-02-13T00:16:05.671Z,102051.03
2023-02-13T00:18:46.229Z,102048.66
2023-02-13T00:21:15.449Z,102057.37
2023-02-13T00:23:41.992Z,102060.41
2023-02-13T00:26:13.840Z,102057.03
2023-02-13T00:28:40.780Z,102066.66
2023-02-13T00:31:14.092Z,102065.31
2023-02-13T00:36:17.517Z,102072.72
2023-02-13T00:38:44.884Z,102071.13
2023-02-13T00:41:12.003Z,102060.91
2023-02-13T00:43:39.107Z,102056.66
2023-02-13T00:46:17.013Z,102058.75
2023-02-13T00:49:14.856Z,102057.59
2023-02-13T00:52:12.486Z,102057.94
2023-02-13T00:54:54.515Z,102061.22
2023-02-13T00:57:21.091Z,102061.19
2023-02-13T00:59:47.694Z,102056.41
2023-02-13T01:02:14.336Z,102067.06
2023-02-13T01:04:40.950Z,102059.41
2023-02-13T01:07:07.536Z,102048.19
2023-02-13T01:09:34.120Z,102049.03
2023-02-13T01:12:00.774Z,102042.12
2023-02-13T01:14:27.314Z,102029.78
2023-02-13T01:16:54.016Z,102034.09
2023-02-13T01:19:59.279Z,102034.72
2023-02-13T01:22:45.902Z,102020.72
2023-02-13T01:25:12.452Z,102024.78
2023-02-13T01:27:39.003Z,102026.25
2023-02-13T01:30:11.730Z,102020.63
2023-02-13T01:32:38.329Z,102029.13
2023-02-13T01:35:05.237Z,102027.03
2023-02-13T01:37:51.174Z,102030.19
2023-02-13T01:40:17.839Z,102024.50
2023-02-13T01:42:44.853Z,102015.03
2023-02-13T01:45:28.324Z,102008.09
2023-02-13T01:48:09.450Z,102012.50
2023-02-13T01:51:45.344Z,102017.13
2023-02-13T01:54:19.383Z,102019.63
2023-02-13T01:56:53.773Z,102022.50
2023-02-13T01:59:26.148Z,102018.44
2023-02-13T02:01:54.335Z,102013.81
2023-02-13T02:04:39.763Z,102015.94
2023-02-13T02:09:44.264Z,102013.81
2023-02-13T02:12:10.746Z,102012.69
2023-02-13T02:14:38.349Z,102016.34
2023-02-13T02:17:05.027Z,102005.88
2023-02-13T02:19:56.336Z,102015.22
2023-02-13T02:26:44.087Z,102007.66
2023-02-13T02:29:21.566Z,102017.06
2023-02-13T02:32:09.997Z,102011.34
2023-02-13T02:34:48.631Z,102005.53
2023-02-13T02:37:58.174Z,102007.13
2023-02-13T02:41:05.616Z,102014.53
2023-02-13T02:43:47.754Z,102015.78
2023-02-13T02:46:28.266Z,102013.19
2023-02-13T02:49:26.700Z,102012.72
2023-02-13T02:52:47.535Z,102013.91
2023-02-13T02:55:32.720Z,102019.31
2023-02-13T02:59:14.883Z,102012.72
2023-02-13T03:02:02.456Z,102011.75
2023-02-13T03:08:44.970Z,102016.16
2023-02-13T03:11:46.642Z,102010.50
2023-02-13T03:14:16.708Z,102003.91
2023-02-13T03:17:02.211Z,102002.00
2023-02-13T03:29:20.277Z,102005.03
2023-02-13T03:32:30.843Z,101999.87
2023-02-13T03:38:59.618Z,102006.56
2023-02-13T03:41:41.849Z,102002.00
2023-02-13T03:44:30.841Z,102010.16
2023-02-13T03:47:00.850Z,101998.88
2023-02-13T03:49:54.993Z,102002.87
2023-02-13T03:57:54.763Z,101994.06
2023-02-13T04:00:22.217Z,101996.44
2023-02-13T04:06:52.170Z,101995.78
2023-02-13T04:09:18.719Z,101994.50
2023-02-13T04:12:03.251Z,101993.50
2023-02-13T04:14:47.505Z,102000.00
2023-02-13T04:17:21.421Z,102001.38
2023-02-13T04:19:48.141Z,102008.47
2023-02-13T04:22:21.233Z,102007.84
2023-02-13T04:24:47.717Z,102000.28
2023-02-13T04:27:16.542Z,102005.16
2023-02-13T04:29:43.296Z,101996.84
2023-02-13T04:32:36.565Z,101996.75
2023-02-13T04:35:18.096Z,102002.72
2023-02-13T04:37:45.130Z,101995.03
2023-02-13T04:40:14.644Z,101991.88
2023-02-13T04:42:41.220Z,101997.94
2023-02-13T04:45:08.205Z,101995.22
2023-02-13T04:47:34.851Z,101992.94
2023-02-13T04:50:01.404Z,101991.38
2023-02-13T04:52:27.983Z,101994.47
2023-02-13T04:54:54.500Z,101995.44
2023-02-13T04:57:21.068Z,101982.91
2023-02-13T04:59:47.649Z,101985.78
2023-02-13T05:02:14.162Z,101985.66
2023-02-13T05:04:40.785Z,101984.09
2023-02-13T05:07:07.354Z,101973.16
2023-02-13T05:09:34.004Z,101983.81
2023-02-13T05:12:00.602Z,101985.00
2023-02-13T05:14:27.162Z,101982.75
2023-02-13T05:16:53.762Z,101985.59
2023-02-13T05:19:20.368Z,101983.16
2023-02-13T05:25:28.755Z,101968.16
2023-02-13T05:27:55.341Z,101975.28
2023-02-13T05:30:22.069Z,101965.94
2023-02-13T05:32:50.865Z,101974.38
2023-02-13T05:35:18.596Z,101967.75
2023-02-13T05:37:45.610Z,101965.19
2023-02-13T05:40:13.485Z,101964.53
2023-02-13T05:42:43.505Z,101959.13
2023-02-13T05:45:10.710Z,101966.47
2023-02-13T05:47:37.301Z,101963.84
2023-02-13T05:50:04.027Z,101968.47
2023-02-13T05:52:30.607Z,101978.06
2023-02-13T05:57:34.711Z,101982.69
2023-02-13T06:00:01.502Z,101972.13
2023-02-13T06:02:28.161Z,101971.69
2023-02-13T06:08:17.565Z,101986.06
2023-02-13T06:10:59.930Z,101983.78
2023-02-13T06:13:26.726Z,101991.38
2023-02-13T06:15:53.644Z,101990.63
2023-02-13T06:18:20.226Z,101997.69
2023-02-13T06:20:46.957Z,101999.84
2023-02-13T06:23:13.937Z,102007.69
2023-02-13T06:25:40.696Z,102007.22
2023-02-13T06:28:07.423Z,102008.16
2023-02-13T06:30:34.206Z,102006.97
2023-02-13T06:33:01.022Z,102014.62
2023-02-13T06:35:28.210Z,102012.94
2023-02-13T06:37:54.847Z,102018.62
2023-02-13T06:40:21.539Z,102022.81
2023-02-13T06:42:48.275Z,102014.81
2023-02-13T06:45:14.981Z,102025.34
2023-02-13T06:47:47.211Z,102023.03
2023-02-13T06:50:16.068Z,102020.37
2023-02-13T06:52:47.967Z,102009.81
2023-02-13T06:55:30.005Z,102015.38
2023-02-13T06:57:56.640Z,102022.09
2023-02-13T07:00:26.077Z,102015.69
2023-02-13T07:02:52.846Z,102020.75
2023-02-13T07:05:32.197Z,102021.25
2023-02-13T07:08:45.270Z,102023.94
2023-02-13T07:11:24.265Z,102018.03
2023-02-13T07:13:50.945Z,102022.72
2023-02-13T07:16:17.657Z,102024.53
2023-02-13T07:18:44.259Z,102019.25
2023-02-13T07:21:11.256Z,102020.97
2023-02-13T07:23:37.941Z,102025.88
2023-02-13T07:26:04.721Z,102030.13
2023-02-13T07:28:31.724Z,102034.94
2023-02-13T07:31:03.431Z,102030.00
2023-02-13T07:33:30.046Z,102033.09
2023-02-13T07:35:56.612Z,102030.47
2023-02-13T07:38:23.197Z,102030.75
2023-02-13T07:41:17.394Z,102035.28
2023-02-13T07:44:08.486Z,102033.66
2023-02-13T07:46:35.140Z,102035.31
2023-02-13T07:49:01.666Z,102029.09
2023-02-13T07:51:29.164Z,102041.47
2023-02-13T07:53:57.322Z,102038.84
2023-02-13T07:56:24.243Z,102031.75
2023-02-13T07:58:50.833Z,102036.69
2023-02-13T08:01:17.643Z,102044.41
2023-02-13T08:03:50.761Z,102050.94
2023-02-13T08:06:18.703Z,102052.31
2023-02-13T08:08:45.352Z,102050.72
2023-02-13T08:11:49.522Z,102051.22
2023-02-13T08:16:51.972Z,102055.22
2023-02-13T08:19:18.886Z,102049.59
2023-02-13T08:21:45.796Z,102044.00
2023-02-13T08:24:13.512Z,102040.75
2023-02-13T08:26:40.314Z,102039.53
2023-02-13T08:29:19.028Z,102043.91
2023-02-13T08:32:07.690Z,102043.53
2023-02-13T08:34:52.742Z,102035.03
2023-02-13T08:37:19.343Z,102033.66
2023-02-13T08:39:55.236Z,102032.69
2023-02-13T08:42:21.790Z,102030.59
2023-02-13T08:45:03.589Z,102029.69
2023-02-13T08:47:30.330Z,102023.37
2023-02-13T08:49:56.879Z,102026.47
2023-02-13T08:52:23.511Z,102025.53
2023-02-13T08:54:50.065Z,102023.13
2023-02-13T08:57:16.612Z,102031.34
2023-02-13T08:59:48.084Z,102030.28
2023-02-13T09:02:14.956Z,102025.03
2023-02-13T09:04:41.505Z,102031.72
2023-02-13T09:07:08.090Z,102025.78
2023-02-13T09:10:12.493Z,102031.16
2023-02-13T09:13:04.181Z,102032.94
2023-02-13T09:15:31.632Z,102032.34
2023-02-13T09:17:58.323Z,102037.75
2023-02-13T09:20:25.168Z,102027.78
2023-02-13T09:22:51.777Z,102037.44
2023-02-13T09:25:20.260Z,102041.97
2023-02-13T09:27:46.894Z,102032.19
2023-02-13T09:30:19.137Z,102029.00
2023-02-13T09:32:45.679Z,102041.88
2023-02-13T09:35:14.986Z,102047.84
2023-02-13T09:37:41.550Z,102038.56
2023-02-13T09:40:29.665Z,102041.75
2023-02-13T09:43:20.370Z,102043.25
2023-02-13T09:45:56.037Z,102040.97
2023-02-13T09:48:31.215Z,102034.97
2023-02-13T09:50:59.514Z,102023.47
2023-02-13T09:53:29.426Z,102027.50
2023-02-13T09:59:42.394Z,102026.75
2023-02-13T10:02:59.525Z,102018.72
2023-02-13T10:06:06.725Z,102014.72
2023-02-13T10:08:45.903Z,102018.78
2023-02-13T10:11:27.003Z,102014.69
2023-02-13T10:14:32.836Z,102004.47
2023-02-13T10:17:14.496Z,102004.13
2023-02-13T10:20:02.503Z,101999.56
2023-02-13T10:22:42.208Z,101997.88
2023-02-13T10:25:16.155Z,102001.69
2023-02-13T10:27:50.210Z,101997.47
2023-02-13T10:30:24.363Z,101987.88
2023-02-13T10:33:21.128Z,101993.31
2023-02-13T10:35:59.761Z,101989.75
2023-02-13T10:38:31.256Z,101999.19
2023-02-13T10:41:16.291Z,101982.66
2023-02-13T10:44:40.065Z,101994.78
2023-02-13T10:47:39.617Z,101990.00
2023-02-13T10:50:26.955Z,101982.16
2023-02-13T10:53:15.110Z,101983.34
2023-02-13T10:56:28.188Z,101984.00
2023-02-13T10:59:28.212Z,101972.69
2023-02-13T11:02:03.806Z,101967.00
2023-02-13T11:04:30.960Z,101968.16
2023-02-13T11:07:06.055Z,101964.72
2023-02-13T11:09:40.095Z,101964.00
2023-02-13T11:23:57.679Z,101940.75
2023-02-13T11:26:53.867Z,101940.75
2023-02-13T11:29:59.846Z,101933.16
2023-02-13T11:32:29.573Z,101927.78
2023-02-13T11:34:56.823Z,101932.09
2023-02-13T11:37:28.039Z,101923.53
2023-02-13T11:39:57.710Z,101919.62
2023-02-13T11:42:29.570Z,101916.69
2023-02-13T11:45:01.607Z,101904.81
2023-02-13T11:47:46.239Z,101904.91
2023-02-13T11:50:42.532Z,101900.56
2023-02-13T11:53:21.426Z,101894.37
2023-02-13T11:56:10.190Z,101889.94
2023-02-13T11:58:37.468Z,101889.53
2023-02-13T12:01:11.534Z,101889.00
2023-02-13T12:03:38.899Z,101885.66
2023-02-13T12:06:13.186Z,101882.38
2023-02-13T12:08:45.851Z,101882.19
2023-02-13T12:11:37.004Z,101881.88
2023-02-13T12:14:40.970Z,101877.66
2023-02-13T12:17:25.548Z,101879.53
2023-02-13T12:19:57.681Z,101887.72
2023-02-13T12:22:47.368Z,101878.72
2023-02-13T12:25:54.758Z,101878.69
2023-02-13T12:28:55.323Z,101866.12
2023-02-13T12:31:44.267Z,101857.56
2023-02-13T12:34:33.662Z,101849.06
2023-02-13T12:37:11.886Z,101854.37
2023-02-13T12:39:47.528Z,101845.78
2023-02-13T12:57:03.078Z,101825.72
2023-02-13T13:00:22.738Z,101828.12
2023-02-13T13:03:29.880Z,101819.81
2023-02-13T13:06:31.883Z,101808.06
2023-02-13T13:09:07.868Z,101801.97
2023-02-13T13:12:01.807Z,101811.22
2023-02-13T13:15:09.146Z,101810.78
2023-02-13T13:18:02.156Z,101808.62
2023-02-13T13:20:52.265Z,101818.34
2023-02-13T13:23:30.697Z,101810.34
2023-02-13T13:26:26.428Z,101805.28
2023-02-13T13:28:57.029Z,101806.81
2023-02-13T13:31:26.797Z,101810.97
2023-02-13T13:33:58.472Z,101805.91
2023-02-13T13:36:33.991Z,101800.19
2023-02-13T13:39:15.623Z,101814.56
2023-02-13T13:41:47.054Z,101817.03
2023-02-13T13:44:20.638Z,101807.94
2023-02-13T13:46:59.557Z,101809.50
2023-02-13T13:49:46.660Z,101807.88
2023-02-13T13:52:39.842Z,101807.06
2023-02-13T13:55:26.814Z,101800.00
2023-02-13T13:58:00.758Z,101793.81
2023-02-13T14:00:30.349Z,101794.44
2023-02-13T14:03:20.518Z,101806.25
2023-02-13T14:06:06.795Z,101798.00
2023-02-13T14:08:45.466Z,101795.81
2023-02-13T14:11:35.411Z,101796.22
2023-02-13T14:14:22.696Z,101798.00
2023-02-13T14:16:49.294Z,101795.47
2023-02-13T14:19:40.605Z,101799.19
2023-02-13T14:22:19.503Z,101797.88
2023-02-13T14:25:07.303Z,101794.81
2023-02-13T14:27:40.741Z,101803.69
2023-02-13T14:30:27.046Z,101804.44
2023-02-13T14:32:54.324Z,101806.84
2023-02-13T14:35:27.603Z,101806.75
2023-02-13T14:37:59.509Z,101802.69
2023-02-13T14:40:43.471Z,101800.63
2023-02-13T14:43:27.104Z,101801.81
2023-02-13T14:46:14.463Z,101804.19
2023-02-13T14:48:48.708Z,101809.56
2023-02-13T14:51:28.885Z,101803.44
2023-02-13T14:54:20.391Z,101807.19
2023-02-13T14:56:52.294Z,101802.25
2023-02-13T14:59:29.235Z,101797.62
2023-02-13T15:02:00.880Z,101803.37
2023-02-13T15:04:34.885Z,101799.66
2023-02-13T15:07:06.345Z,101802.91
2023-02-13T15:09:40.070Z,101800.47
2023-02-13T15:12:33.569Z,101808.56
2023-02-13T15:15:03.511Z,101798.06
2023-02-13T15:17:40.127Z,101795.84
2023-02-13T15:20:12.466Z,101795.94
2023-02-13T15:22:45.295Z,101801.00
2023-02-13T15:25:36.945Z,101806.78
2023-02-13T15:28:07.023Z,101811.75
2023-02-13T15:30:38.325Z,101810.47
2023-02-13T15:33:17.844Z,101818.31
2023-02-13T15:35:45.080Z,101817.88
2023-02-13T15:38:39.316Z,101818.91
2023-02-13T15:41:26.621Z,101817.75
2023-02-13T15:43:57.852Z,101810.03
2023-02-13T15:46:33.844Z,101814.56
2023-02-13T15:49:32.296Z,101794.22
2023-02-13T15:52:06.762Z,101793.91
2023-02-13T15:54:35.110Z,101799.00
2023-02-13T15:57:24.626Z,101801.66
2023-02-13T15:59:52.501Z,101812.41
2023-02-13T16:02:31.843Z,101812.22
2023-02-13T16:05:01.242Z,101810.31
2023-02-13T16:07:27.867Z,101811.34
2023-02-13T16:10:18.762Z,101802.63
2023-02-13T16:12:48.495Z,101803.63
2023-02-13T16:15:21.326Z,101810.97
2023-02-13T16:17:49.018Z,101815.41
2023-02-13T16:20:36.683Z,101818.09
2023-02-13T16:23:18.258Z,101814.53
2023-02-13T16:25:47.685Z,101820.88
2023-02-13T16:28:21.500Z,101820.69
2023-02-13T16:31:03.064Z,101817.41
2023-02-13T16:33:30.767Z,101819.22
2023-02-13T16:36:29.024Z,101812.97
2023-02-13T16:38:55.673Z,101805.84
2023-02-13T16:41:22.271Z,101803.53
2023-02-13T16:43:53.627Z,101801.22
2023-02-13T16:46:23.097Z,101811.88
2023-02-13T16:49:01.357Z,101812.66
2023-02-13T16:51:40.066Z,101801.81
2023-02-13T16:54:15.757Z,101802.06
2023-02-13T16:56:42.245Z,101804.81
2023-02-13T16:59:35.067Z,101803.28
2023-02-13T17:02:16.687Z,101806.22
2023-02-13T17:05:04.718Z,101814.16
2023-02-13T17:07:35.971Z,101816.37
2023-02-13T17:10:17.325Z,101808.34
2023-02-13T17:12:45.673Z,101796.78
2023-02-13T17:15:14.543Z,101789.91
2023-02-13T17:17:41.298Z,101785.87
2023-02-13T17:20:17.571Z,101783.63
2023-02-13T17:22:46.407Z,101787.38
2023-02-13T17:25:21.825Z,101771.66
2023-02-13T17:27:50.251Z,101773.63
2023-02-13T17:30:44.178Z,101772.72
2023-02-13T17:33:15.198Z,101776.00
2023-02-13T17:35:41.788Z,101785.13
2023-02-13T17:38:10.072Z,101779.00
2023-02-13T17:40:37.394Z,101785.63
2023-02-13T17:43:04.222Z,101782.19
2023-02-13T17:45:33.038Z,101780.84
2023-02-13T17:47:59.661Z,101775.44
2023-02-13T17:50:28.301Z,101772.28
2023-02-13T17:52:55.498Z,101768.34
2023-02-13T17:55:27.210Z,101766.03
2023-02-13T17:57:58.499Z,101764.81
2023-02-13T18:00:29.125Z,101756.00
2023-02-13T18:02:56.484Z,101756.59
2023-02-13T18:05:23.052Z,101752.37
2023-02-13T18:07:49.725Z,101751.38
2023-02-13T18:10:25.478Z,101746.97
2023-02-13T18:12:53.698Z,101751.00
2023-02-13T18:15:21.155Z,101761.69
2023-02-13T18:17:48.245Z,101748.34
2023-02-13T18:20:23.064Z,101747.50
2023-02-13T18:22:52.477Z,101741.25
2023-02-13T18:25:20.250Z,101747.50
2023-02-13T18:27:47.345Z,101725.81
2023-02-13T18:30:16.428Z,101724.13
2023-02-13T18:32:43.129Z,101735.09
2023-02-13T18:35:09.907Z,101728.19
2023-02-13T18:37:36.645Z,101724.41
2023-02-13T18:40:03.450Z,101714.00
2023-02-13T18:42:29.997Z,101719.19
2023-02-13T18:44:56.555Z,101718.19
2023-02-13T18:47:23.089Z,101720.03
2023-02-13T18:49:49.842Z,101711.63
2023-02-13T18:52:16.442Z,101710.59
2023-02-13T18:54:43.079Z,101711.84
2023-02-13T18:57:09.863Z,101710.75
2023-02-13T18:59:37.926Z,101702.84
2023-02-13T19:02:04.525Z,101704.37
2023-02-13T19:04:31.667Z,101710.16
2023-02-13T19:06:58.402Z,101706.62
2023-02-13T19:09:25.026Z,101704.72
2023-02-13T19:11:57.284Z,101712.84
2023-02-13T19:15:07.372Z,101704.44
2023-02-13T19:17:57.025Z,101709.13
2023-02-13T19:20:24.451Z,101698.06
2023-02-13T19:22:50.973Z,101705.41
2023-02-13T19:25:18.969Z,101700.94
2023-02-13T19:27:45.498Z,101705.09
2023-02-13T19:30:12.580Z,101709.97
2023-02-13T19:32:39.270Z,101709.72
2023-02-13T19:35:06.360Z,101711.31
2023-02-13T19:37:42.957Z,101710.97
2023-02-13T19:40:11.334Z,101719.28
2023-02-13T19:42:40.045Z,101714.56
2023-02-13T19:45:07.144Z,101708.31
2023-02-13T19:47:34.051Z,101707.91
2023-02-13T19:50:01.964Z,101708.69
2023-02-13T19:52:28.570Z,101704.56
2023-02-13T19:54:55.425Z,101704.09
2023-02-13T19:57:21.995Z,101708.50
2023-02-13T19:59:48.711Z,101703.28
2023-02-13T20:02:15.792Z,101697.03
2023-02-13T20:04:42.471Z,101703.94
2023-02-13T20:07:09.033Z,101694.19
2023-02-13T20:09:37.381Z,101702.00
2023-02-13T20:12:07.199Z,101697.44
2023-02-13T20:14:34.352Z,101696.81
2023-02-13T20:17:04.278Z,101693.59
2023-02-13T20:19:31.545Z,101686.66
2023-02-13T20:21:58.204Z,101676.06
2023-02-13T20:24:24.845Z,101677.22
2023-02-13T20:26:51.528Z,101680.25
2023-02-13T20:29:18.176Z,101675.09
2023-02-13T20:31:44.869Z,101672.94
2023-02-13T20:34:11.917Z,101669.72
2023-02-13T20:36:38.485Z,101670.00
2023-02-13T20:39:06.729Z,101667.91
2023-02-13T20:41:38.368Z,101670.91
2023-02-13T20:44:08.474Z,101676.03
2023-02-13T20:46:37.369Z,101684.03
2023-02-13T20:49:04.018Z,101679.78
2023-02-13T20:51:30.695Z,101675.03
2023-02-13T20:53:57.814Z,101668.41
2023-02-13T20:56:25.436Z,101658.06
2023-02-13T20:58:54.926Z,101669.06
2023-02-13T21:01:24.154Z,101671.59
2023-02-13T21:03:54.572Z,101667.75
2023-02-13T21:06:23.240Z,101663.00
2023-02-13T21:08:50.271Z,101661.50
2023-02-13T21:11:17.445Z,101658.06
2023-02-13T21:13:44.489Z,101666.19
2023-02-13T21:16:23.189Z,101668.06
2023-02-13T21:18:52.660Z,101671.03
2023-02-13T21:21:20.698Z,101661.75
2023-02-13T21:23:47.874Z,101673.19
2023-02-13T21:26:16.440Z,101667.69
2023-02-13T21:28:48.508Z,101675.97
2023-02-13T21:31:39.030Z,101674.75
2023-02-13T21:34:20.960Z,101670.38
2023-02-13T21:37:18.460Z,101669.81
2023-02-13T21:39:45.011Z,101680.22
2023-02-13T21:42:11.579Z,101677.44
2023-02-13T21:47:20.136Z,101673.13
2023-02-13T21:49:48.082Z,101677.16
2023-02-13T21:52:39.693Z,101673.87
2023-02-13T21:55:08.768Z,101675.62
2023-02-13T21:57:35.988Z,101682.81
2023-02-13T22:00:04.171Z,101687.97
2023-02-13T22:09:27.672Z,101700.03
2023-02-13T22:11:55.074Z,101702.84
2023-02-13T22:14:22.385Z,101706.06
2023-02-13T22:16:50.912Z,101702.53
2023-02-13T22:19:18.042Z,101700.81
2023-02-13T22:22:06.186Z,101702.28
2023-02-13T22:24:35.217Z,101698.28
2023-02-13T22:27:03.111Z,101689.75
2023-02-13T22:29:29.676Z,101685.50
2023-02-13T22:31:56.381Z,101688.53
2023-02-13T22:34:53.982Z,101684.41
2023-02-13T22:37:35.101Z,101693.22
2023-02-13T22:40:01.878Z,101686.00
2023-02-13T22:42:28.480Z,101695.00
2023-02-13T22:44:55.082Z,101687.78
2023-02-13T22:47:21.660Z,101684.44
2023-02-13T22:49:48.244Z,101683.88
2023-02-13T23:25:19.035Z,101682.88
2023-02-13T23:27:45.885Z,101683.03
2023-02-13T23:30:14.203Z,101681.16
2023-02-13T23:32:40.926Z,101676.97
2023-02-13T23:35:09.432Z,101673.44
2023-02-13T23:53:14.072Z,101637.88
2023-02-13T23:55:40.702Z,101631.22
2023-02-13T23:58:07.674Z,101623.69
